createdAt,value
2023-04-16T00:00:09.629Z,16.23
2023-04-16T00:03:24.047Z,18.60
2023-04-16T00:06:37.085Z,20.12
2023-04-16T00:09:49.493Z,20.67
2023-04-16T00:13:02.140Z,21.65
2023-04-16T00:16:14.505Z,19.20
2023-04-16T00:19:27.152Z,22.23
2023-04-16T00:22:39.659Z,19.35
2023-04-16T00:25:53.829Z,20.25
2023-04-16T00:29:06.300Z,20.40
2023-04-16T00:32:19.069Z,20.40
2023-04-16T00:35:31.492Z,20.10
2023-04-16T00:38:44.185Z,23.67
2023-04-16T00:41:56.650Z,19.73
2023-04-16T00:45:10.369Z,19.37
2023-04-16T00:48:22.737Z,22.95
2023-04-16T00:51:36.413Z,17.80
2023-04-16T00:54:48.941Z,19.02
2023-04-16T00:58:01.633Z,17.55
2023-04-16T01:01:16.719Z,19.35
2023-04-16T01:04:30.943Z,18.95
2023-04-16T01:07:43.391Z,17.85
2023-04-16T01:10:56.425Z,18.95
2023-04-16T01:14:08.813Z,17.92
2023-04-16T01:17:21.473Z,17.52
2023-04-16T01:20:36.815Z,17.70
2023-04-16T01:23:49.876Z,18.77
2023-04-16T01:27:02.248Z,16.50
2023-04-16T01:30:14.847Z,19.30
2023-04-16T01:33:28.129Z,17.08
2023-04-16T01:36:40.832Z,15.80
2023-04-16T01:39:53.255Z,16.08
2023-04-16T01:43:05.975Z,15.63
2023-04-16T01:46:20.552Z,15.77
2023-04-16T01:49:33.933Z,17.10
2023-04-16T01:52:46.805Z,14.77
2023-04-16T01:55:59.466Z,16.85
2023-04-16T01:59:12.419Z,15.70
2023-04-16T02:02:28.360Z,14.38
2023-04-16T02:05:41.419Z,15.02
2023-04-16T02:08:53.926Z,17.40
2023-04-16T02:12:06.720Z,16.98
2023-04-16T02:15:19.301Z,17.10
2023-04-16T02:18:31.994Z,14.00
2023-04-16T02:21:44.895Z,16.17
2023-04-16T02:24:57.383Z,14.98
2023-04-16T02:28:11.045Z,13.07
2023-04-16T02:31:23.720Z,16.40
2023-04-16T02:34:36.678Z,14.23
2023-04-16T02:37:49.700Z,14.15
2023-04-16T02:41:02.374Z,14.30
2023-04-16T02:44:14.747Z,19.62
2023-04-16T02:47:27.432Z,14.95
2023-04-16T02:50:39.875Z,15.07
2023-04-16T02:53:52.496Z,14.38
2023-04-16T02:57:06.099Z,14.48
2023-04-16T03:00:19.123Z,14.25
2023-04-16T03:03:31.448Z,16.37
2023-04-16T03:06:44.129Z,14.75
2023-04-16T03:09:56.980Z,16.17
2023-04-16T03:13:09.645Z,15.80
2023-04-16T03:16:22.539Z,13.98
2023-04-16T03:19:35.404Z,13.88
2023-04-16T03:22:47.861Z,16.40
2023-04-16T03:26:00.615Z,15.13
2023-04-16T03:29:14.168Z,15.80
2023-04-16T03:32:27.245Z,17.05
2023-04-16T03:35:40.189Z,13.32
2023-04-16T03:38:53.410Z,14.27
2023-04-16T03:42:06.141Z,14.50
2023-04-16T03:45:19.630Z,13.65
2023-04-16T03:48:32.855Z,17.00
2023-04-16T03:51:46.122Z,14.77
2023-04-16T03:54:58.499Z,16.62
2023-04-16T03:58:11.498Z,21.75
2023-04-16T04:01:23.977Z,18.62
2023-04-16T04:04:38.043Z,18.73
2023-04-16T04:07:50.678Z,16.48
2023-04-16T04:11:03.393Z,14.10
2023-04-16T04:14:16.130Z,16.95
2023-04-16T04:17:28.999Z,16.27
2023-04-16T04:20:41.446Z,15.95
2023-04-16T04:23:56.066Z,14.60
2023-04-16T04:27:08.964Z,19.05
2023-04-16T04:30:21.763Z,19.37
2023-04-16T04:33:34.153Z,16.75
2023-04-16T04:36:47.046Z,17.20
2023-04-16T04:39:59.476Z,16.33
2023-04-16T04:43:12.341Z,17.45
2023-04-16T04:46:24.962Z,15.27
2023-04-16T04:49:37.670Z,17.35
2023-04-16T04:52:50.087Z,16.00
2023-04-16T04:56:12.176Z,14.77
2023-04-16T04:59:25.672Z,14.20
2023-04-16T05:02:38.759Z,14.13
2023-04-16T05:05:51.387Z,14.18
2023-04-16T05:09:04.289Z,14.27
2023-04-16T05:12:16.639Z,13.75
2023-04-16T05:15:29.266Z,13.30
2023-04-16T05:18:41.889Z,13.98
2023-04-16T05:21:54.584Z,12.32
2023-04-16T05:25:07.135Z,13.60
2023-04-16T05:28:19.877Z,14.95
2023-04-16T05:31:32.188Z,12.35
2023-04-16T05:34:44.806Z,15.20
2023-04-16T05:37:57.154Z,12.90
2023-04-16T05:41:09.808Z,11.63
2023-04-16T05:44:22.236Z,12.35
2023-04-16T05:47:34.891Z,14.85
2023-04-16T05:50:47.292Z,12.07
2023-04-16T05:53:59.942Z,11.07
2023-04-16T05:57:13.807Z,10.93
2023-04-16T06:00:27.225Z,11.32
2023-04-16T06:03:39.931Z,10.30
2023-04-16T06:06:52.353Z,9.57
2023-04-16T06:10:05.348Z,11.32
2023-04-16T06:13:18.464Z,13.10
2023-04-16T06:16:31.210Z,10.00
2023-04-16T06:19:43.576Z,11.52
2023-04-16T06:22:56.361Z,9.15
2023-04-16T06:26:08.673Z,11.45
2023-04-16T06:29:24.131Z,9.77
2023-04-16T06:32:43.453Z,9.20
2023-04-16T06:35:56.686Z,8.85
2023-04-16T06:39:09.404Z,7.78
2023-04-16T06:42:22.373Z,8.20
2023-04-16T06:45:34.888Z,7.80
2023-04-16T06:48:47.625Z,7.65
2023-04-16T06:51:59.984Z,8.52
2023-04-16T06:55:12.641Z,8.85
2023-04-16T06:58:25.042Z,7.32
2023-04-16T07:01:37.683Z,8.93
2023-04-16T07:04:50.114Z,8.35
2023-04-16T07:08:02.742Z,8.07
2023-04-16T07:11:15.120Z,7.62
2023-04-16T07:14:27.821Z,8.15
2023-04-16T07:17:40.280Z,10.02
2023-04-16T07:20:52.907Z,8.02
2023-04-16T07:24:05.372Z,7.15
2023-04-16T07:27:18.044Z,7.62
2023-04-16T07:30:34.238Z,8.07
2023-04-16T07:33:47.110Z,8.05
2023-04-16T07:36:59.422Z,6.82
2023-04-16T07:40:12.319Z,7.22
2023-04-16T07:43:24.663Z,7.68
2023-04-16T07:46:46.460Z,5.90
2023-04-16T07:49:59.981Z,7.40
2023-04-16T07:53:12.692Z,6.87
2023-04-16T07:56:25.065Z,6.80
2023-04-16T07:59:37.680Z,6.78
2023-04-16T08:02:50.161Z,6.57
2023-04-16T08:06:02.934Z,7.00
2023-04-16T08:09:15.301Z,7.35
2023-04-16T08:12:27.945Z,8.32
2023-04-16T08:15:40.336Z,7.50
2023-04-16T08:18:52.993Z,9.18
2023-04-16T08:22:05.479Z,9.57
2023-04-16T08:25:18.240Z,7.65
2023-04-16T08:28:30.970Z,6.95
2023-04-16T08:31:43.710Z,6.95
2023-04-16T08:34:56.214Z,5.32
2023-04-16T08:38:08.984Z,7.60
2023-04-16T08:41:21.924Z,6.10
2023-04-16T08:44:35.851Z,6.10
2023-04-16T08:47:49.759Z,7.05
2023-04-16T08:51:02.448Z,6.53
2023-04-16T08:54:15.440Z,6.47
2023-04-16T08:57:31.023Z,7.10
2023-04-16T09:00:43.646Z,7.37
2023-04-16T09:03:56.420Z,7.45
2023-04-16T09:07:09.480Z,7.30
2023-04-16T09:10:22.236Z,8.43
2023-04-16T09:13:35.173Z,7.22
2023-04-16T09:16:48.152Z,8.38
2023-04-16T09:20:00.585Z,11.75
2023-04-16T09:23:13.199Z,8.00
2023-04-16T09:26:25.600Z,6.93
2023-04-16T09:29:41.587Z,7.30
2023-04-16T09:33:22.793Z,7.37
2023-04-16T09:36:36.379Z,9.13
2023-04-16T09:39:55.955Z,8.98
2023-04-16T09:43:18.280Z,7.62
2023-04-16T09:46:31.911Z,8.02
2023-04-16T09:49:44.653Z,7.70
2023-04-16T09:52:57.040Z,6.93
2023-04-16T09:56:11.731Z,7.97
2023-04-16T09:59:31.189Z,8.18
2023-04-16T10:02:43.942Z,6.65
2023-04-16T10:05:56.597Z,9.30
2023-04-16T10:09:12.358Z,7.60
2023-04-16T10:12:25.401Z,7.82
2023-04-16T10:15:40.176Z,6.95
2023-04-16T10:18:53.071Z,8.23
2023-04-16T10:22:05.577Z,7.35
2023-04-16T10:25:18.358Z,8.00
2023-04-16T10:28:30.756Z,8.00
2023-04-16T10:31:43.368Z,6.65
2023-04-16T10:34:55.906Z,7.30
2023-04-16T10:38:51.132Z,7.15
2023-04-16T10:42:12.895Z,6.05
2023-04-16T10:45:46.828Z,3.92
2023-04-16T10:49:03.346Z,4.53
2023-04-16T10:52:17.406Z,7.93
2023-04-16T10:55:29.840Z,4.95
2023-04-16T10:58:42.674Z,4.62
2023-04-16T11:01:56.135Z,4.40
2023-04-16T11:05:09.719Z,4.65
2023-04-16T11:08:26.383Z,4.45
2023-04-16T11:14:53.256Z,4.15
2023-04-16T11:18:07.134Z,4.18
2023-04-16T11:21:19.697Z,5.70
2023-04-16T11:24:32.775Z,7.10
2023-04-16T11:27:45.122Z,5.97
2023-04-16T11:30:57.820Z,4.70
2023-04-16T11:34:10.209Z,5.70
2023-04-16T11:37:40.459Z,6.20
2023-04-16T11:40:54.185Z,4.37
2023-04-16T11:44:19.715Z,4.05
2023-04-16T11:47:32.164Z,5.22
2023-04-16T11:50:45.064Z,4.90
2023-04-16T11:53:58.771Z,4.78
2023-04-16T11:57:11.560Z,5.25
2023-04-16T12:00:24.749Z,4.75
2023-04-16T12:03:44.251Z,6.28
2023-04-16T12:07:06.899Z,5.20
2023-04-16T12:10:19.553Z,6.18
2023-04-16T12:13:39.768Z,4.62
2023-04-16T12:16:52.509Z,4.85
2023-04-16T12:20:09.818Z,6.53
2023-04-16T12:23:30.041Z,3.95
2023-04-16T12:26:43.251Z,2.78
2023-04-16T12:30:07.238Z,4.28
2023-04-16T12:33:19.651Z,4.22
2023-04-16T12:36:32.242Z,3.78
2023-04-16T12:39:45.486Z,3.85
2023-04-16T12:42:59.570Z,3.60
2023-04-16T12:46:11.964Z,5.03
2023-04-16T12:49:25.309Z,4.62
2023-04-16T12:52:37.661Z,4.80
2023-04-16T12:55:50.510Z,4.62
2023-04-16T12:59:03.352Z,2.70
2023-04-16T13:02:16.810Z,4.07
2023-04-16T13:05:29.355Z,2.60
2023-04-16T13:08:42.987Z,4.65
2023-04-16T13:11:55.410Z,2.37
2023-04-16T13:15:08.748Z,3.53
2023-04-16T13:18:21.243Z,2.42
2023-04-16T13:21:34.188Z,5.15
2023-04-16T13:24:46.537Z,4.03
2023-04-16T13:27:59.178Z,4.12
2023-04-16T13:31:11.581Z,23.85
2023-04-16T13:34:24.243Z,19.75
2023-04-16T13:37:36.594Z,3.08
2023-04-16T13:40:49.311Z,7.40
2023-04-16T13:44:01.656Z,5.68
2023-04-16T13:47:14.341Z,6.28
2023-04-16T13:50:26.757Z,5.18
2023-04-16T13:53:39.404Z,4.65
2023-04-16T13:56:51.844Z,3.08
2023-04-16T14:00:04.867Z,3.58
2023-04-16T14:03:17.155Z,3.67
2023-04-16T14:06:29.828Z,4.80
2023-04-16T14:09:42.134Z,5.90
2023-04-16T14:12:55.917Z,3.17
2023-04-16T14:16:08.324Z,3.90
2023-04-16T14:19:21.444Z,3.78
2023-04-16T14:22:33.874Z,4.30
2023-04-16T14:25:46.542Z,6.03
2023-04-16T14:28:59.188Z,3.92
2023-04-16T14:32:11.922Z,6.22
2023-04-16T14:35:24.397Z,2.85
2023-04-16T14:38:37.128Z,3.20
2023-04-16T14:41:49.459Z,3.05
2023-04-16T14:45:02.708Z,2.70
2023-04-16T14:48:15.091Z,3.67
2023-04-16T14:51:27.756Z,3.10
2023-04-16T14:54:40.160Z,6.30
2023-04-16T14:57:52.809Z,3.55
2023-04-16T15:01:05.229Z,2.85
2023-04-16T15:04:18.163Z,5.57
2023-04-16T15:07:30.691Z,3.35
2023-04-16T15:10:45.770Z,2.92
2023-04-16T15:13:58.164Z,3.25
2023-04-16T15:17:10.918Z,3.30
2023-04-16T15:20:23.457Z,4.07
2023-04-16T15:23:36.415Z,3.85
2023-04-16T15:26:48.768Z,5.45
2023-04-16T15:30:03.358Z,4.97
2023-04-16T15:33:16.285Z,3.83
2023-04-16T15:36:29.014Z,6.18
2023-04-16T15:39:41.409Z,5.57
2023-04-16T15:42:55.549Z,4.32
2023-04-16T15:46:08.921Z,3.90
2023-04-16T15:49:21.714Z,4.25
2023-04-16T15:52:34.020Z,5.50
2023-04-16T15:55:46.661Z,4.28
2023-04-16T15:58:59.106Z,4.65
2023-04-16T16:02:11.922Z,2.70
2023-04-16T16:05:24.565Z,3.22
2023-04-16T16:08:38.375Z,3.12
2023-04-16T16:11:53.128Z,4.35
2023-04-16T16:15:06.597Z,4.28
2023-04-16T16:18:19.191Z,3.75
2023-04-16T16:21:32.572Z,5.47
2023-04-16T16:24:45.408Z,2.92
2023-04-16T16:27:58.876Z,7.60
2023-04-16T16:31:12.545Z,5.37
2023-04-16T16:34:24.942Z,5.87
2023-04-16T16:37:37.900Z,6.00
2023-04-16T16:40:50.195Z,4.53
2023-04-16T16:44:02.828Z,4.37
2023-04-16T16:47:15.542Z,3.15
2023-04-16T16:50:28.175Z,5.30
2023-04-16T16:53:40.828Z,5.20
2023-04-16T16:56:53.454Z,4.15
2023-04-16T17:00:14.306Z,3.10
2023-04-16T17:03:27.076Z,3.12
2023-04-16T17:06:39.697Z,2.92
2023-04-16T17:09:52.493Z,4.12
2023-04-16T17:13:04.862Z,4.62
2023-04-16T17:16:17.770Z,3.40
2023-04-16T17:19:30.113Z,3.90
2023-04-16T17:22:42.757Z,4.15
2023-04-16T17:25:55.139Z,4.03
2023-04-16T17:29:07.751Z,3.75
2023-04-16T17:32:20.226Z,4.03
2023-04-16T17:35:33.945Z,3.33
2023-04-16T17:38:46.360Z,5.35
2023-04-16T17:42:01.258Z,4.10
2023-04-16T17:45:13.720Z,7.50
2023-04-16T17:48:26.393Z,3.10
2023-04-16T17:51:38.847Z,3.80
2023-04-16T17:54:53.230Z,5.93
2023-04-16T17:58:05.832Z,4.93
2023-04-16T18:01:18.522Z,7.15
2023-04-16T18:04:31.434Z,5.30
2023-04-16T18:07:44.107Z,5.00
2023-04-16T18:10:56.945Z,8.50
2023-04-16T18:14:11.585Z,4.97
2023-04-16T18:17:24.567Z,6.15
2023-04-16T18:20:36.909Z,5.75
2023-04-16T18:23:49.585Z,7.70
2023-04-16T18:27:05.132Z,5.15
2023-04-16T18:30:23.458Z,5.37
2023-04-16T18:33:55.494Z,7.37
2023-04-16T18:37:10.117Z,6.70
2023-04-16T18:40:22.444Z,6.50
2023-04-16T18:43:35.056Z,5.53
2023-04-16T18:46:47.492Z,6.05
2023-04-16T18:50:00.170Z,7.35
2023-04-16T18:53:12.622Z,6.53
2023-04-16T18:56:25.445Z,10.38
2023-04-16T18:59:37.819Z,6.15
2023-04-16T19:02:50.672Z,7.85
2023-04-16T19:06:04.684Z,5.43
2023-04-16T19:09:17.504Z,8.05
2023-04-16T19:12:30.014Z,7.05
2023-04-16T19:15:42.698Z,8.65
2023-04-16T19:18:55.085Z,6.57
2023-04-16T19:22:07.732Z,7.47
2023-04-16T19:25:21.245Z,8.23
2023-04-16T19:28:33.869Z,5.95
2023-04-16T19:31:47.169Z,7.87
2023-04-16T19:34:59.851Z,7.82
2023-04-16T19:38:12.185Z,7.43
2023-04-16T19:41:24.787Z,8.23
2023-04-16T19:44:37.088Z,8.20
2023-04-16T19:47:51.289Z,7.78
2023-04-16T19:51:04.290Z,7.87
2023-04-16T19:54:17.648Z,7.25
2023-04-16T19:57:30.040Z,7.53
2023-04-16T20:00:43.222Z,6.60
2023-04-16T20:03:56.240Z,7.00
2023-04-16T20:07:08.621Z,7.07
2023-04-16T20:10:21.434Z,7.95
2023-04-16T20:13:34.056Z,7.60
2023-04-16T20:16:46.717Z,10.13
2023-04-16T20:20:01.065Z,6.45
2023-04-16T20:23:14.011Z,6.40
2023-04-16T20:26:28.438Z,5.72
2023-04-16T20:29:41.445Z,5.85
2023-04-16T20:32:53.822Z,5.55
2023-04-16T20:36:06.899Z,6.50
2023-04-16T20:39:20.451Z,6.72
2023-04-16T20:42:33.195Z,5.72
2023-04-16T20:45:46.191Z,6.12
2023-04-16T20:48:58.822Z,5.18
2023-04-16T20:52:11.421Z,4.28
2023-04-16T20:55:24.213Z,4.35
2023-04-16T20:58:36.580Z,3.83
2023-04-16T21:01:49.349Z,6.68
2023-04-16T21:05:01.989Z,4.60
2023-04-16T21:08:14.717Z,4.35
2023-04-16T21:11:29.293Z,4.65
2023-04-16T21:14:41.911Z,5.25
2023-04-16T21:17:54.408Z,5.70
2023-04-16T21:21:07.034Z,5.20
2023-04-16T21:24:19.453Z,4.93
2023-04-16T21:27:32.098Z,4.65
2023-04-16T21:30:44.470Z,6.25
2023-04-16T21:33:57.149Z,6.32
2023-04-16T21:37:10.444Z,4.62
2023-04-16T21:40:23.110Z,6.43
2023-04-16T21:43:35.421Z,4.65
2023-04-16T21:46:48.114Z,4.55
2023-04-16T21:50:00.501Z,3.67
2023-04-16T21:53:13.169Z,5.32
2023-04-16T21:56:26.048Z,3.95
2023-04-16T21:59:39.018Z,4.85
2023-04-16T22:02:51.653Z,5.43
2023-04-16T22:06:05.375Z,4.22
2023-04-16T22:09:17.765Z,4.60
2023-04-16T22:12:30.808Z,4.78
2023-04-16T22:15:43.107Z,4.70
2023-04-16T22:18:56.642Z,5.80
2023-04-16T22:22:08.985Z,5.40
2023-04-16T22:25:21.567Z,4.75
2023-04-16T22:28:33.888Z,6.07
2023-04-16T22:31:46.596Z,4.93
2023-04-16T22:34:58.975Z,6.47
2023-04-16T22:38:11.646Z,4.32
2023-04-16T22:41:24.085Z,5.97
2023-04-16T22:44:36.860Z,4.43
2023-04-16T22:47:49.233Z,4.40
2023-04-16T22:51:02.554Z,4.87
2023-04-16T22:54:14.962Z,7.12
2023-04-16T22:57:27.636Z,4.00
2023-04-16T23:00:40.198Z,4.72
2023-04-16T23:03:52.880Z,5.70
2023-04-16T23:07:05.331Z,6.55
2023-04-16T23:10:17.978Z,4.25
2023-04-16T23:13:30.672Z,4.87
2023-04-16T23:16:43.274Z,4.55
2023-04-16T23:19:56.005Z,4.18
2023-04-16T23:23:08.646Z,4.53
2023-04-16T23:26:21.052Z,4.75
2023-04-16T23:29:33.663Z,4.35
2023-04-16T23:32:45.996Z,4.65
2023-04-16T23:35:58.684Z,4.28
2023-04-16T23:39:11.202Z,3.75
2023-04-16T23:42:23.916Z,4.05
2023-04-16T23:45:36.353Z,5.87
2023-04-16T23:48:49.115Z,4.47
2023-04-16T23:52:01.864Z,4.62
2023-04-16T23:55:14.476Z,4.95
2023-04-16T23:58:26.940Z,7.03
